sensor_id;sensor_type;location;lat;lon;timestamp;pressure;altitude;pressure_sealevel;temperature;humidity
56992;BME280;42885;49.754;18.636;2023-08-21T00:01:27;98824.52;;;23.56;100.00
56992;BME280;42885;49.754;18.636;2023-08-21T00:03:58;98831.23;;;23.85;100.00
56992;BME280;42885;49.754;18.636;2023-08-21T00:06:29;98829.73;;;23.78;100.00
56992;BME280;42885;49.754;18.636;2023-08-21T00:09:01;98833.17;;;23.50;100.00
56992;BME280;42885;49.754;18.636;2023-08-21T00:11:32;98826.05;;;23.24;100.00
56992;BME280;42885;49.754;18.636;2023-08-21T00:14:03;98829.84;;;23.13;100.00
56992;BME280;42885;49.754;18.636;2023-08-21T00:16:34;98827.53;;;23.18;100.00
56992;BME280;42885;49.754;18.636;2023-08-21T00:19:05;98824.75;;;22.93;100.00
56992;BME280;42885;49.754;18.636;2023-08-21T00:21:36;98820.15;;;22.77;100.00
56992;BME280;42885;49.754;18.636;2023-08-21T00:24:10;98825.77;;;22.70;100.00
56992;BME280;42885;49.754;18.636;2023-08-21T00:26:50;98819.67;;;23.13;100.00
56992;BME280;42885;49.754;18.636;2023-08-21T00:29:21;98826.43;;;22.99;100.00
56992;BME280;42885;49.754;18.636;2023-08-21T00:31:52;98820.91;;;22.92;100.00
56992;BME280;42885;49.754;18.636;2023-08-21T00:34:26;98820.61;;;22.99;100.00
56992;BME280;42885;49.754;18.636;2023-08-21T00:36:57;98820.53;;;23.17;100.00
56992;BME280;42885;49.754;18.636;2023-08-21T00:39:28;98817.77;;;23.31;100.00
56992;BME280;42885;49.754;18.636;2023-08-21T00:41:59;98814.78;;;23.43;100.00
56992;BME280;42885;49.754;18.636;2023-08-21T00:44:30;98815.77;;;23.29;100.00
56992;BME280;42885;49.754;18.636;2023-08-21T00:47:00;98815.55;;;23.27;100.00
56992;BME280;42885;49.754;18.636;2023-08-21T00:49:31;98820.45;;;23.44;100.00
56992;BME280;42885;49.754;18.636;2023-08-21T00:52:03;98821.46;;;23.43;100.00
56992;BME280;42885;49.754;18.636;2023-08-21T00:54:34;98823.34;;;23.50;100.00
56992;BME280;42885;49.754;18.636;2023-08-21T00:57:05;98820.13;;;23.39;100.00
56992;BME280;42885;49.754;18.636;2023-08-21T00:59:37;98818.46;;;23.37;100.00
56992;BME280;42885;49.754;18.636;2023-08-21T01:02:08;98816.78;;;23.45;100.00
56992;BME280;42885;49.754;18.636;2023-08-21T01:04:39;98814.48;;;23.46;100.00
56992;BME280;42885;49.754;18.636;2023-08-21T01:07:10;98819.61;;;23.39;100.00
56992;BME280;42885;49.754;18.636;2023-08-21T01:09:58;98820.05;;;23.22;100.00
56992;BME280;42885;49.754;18.636;2023-08-21T01:12:46;98822.68;;;23.18;100.00
56992;BME280;42885;49.754;18.636;2023-08-21T01:15:15;98824.80;;;23.45;100.00
56992;BME280;42885;49.754;18.636;2023-08-21T01:17:46;98822.64;;;23.48;100.00
56992;BME280;42885;49.754;18.636;2023-08-21T01:20:18;98810.70;;;22.87;100.00
56992;BME280;42885;49.754;18.636;2023-08-21T01:22:52;98820.19;;;22.86;100.00
56992;BME280;42885;49.754;18.636;2023-08-21T01:25:31;98822.83;;;23.08;100.00
56992;BME280;42885;49.754;18.636;2023-08-21T01:28:02;98816.19;;;23.16;100.00
56992;BME280;42885;49.754;18.636;2023-08-21T01:30:35;98813.31;;;23.53;100.00
56992;BME280;42885;49.754;18.636;2023-08-21T01:33:13;98812.30;;;23.45;100.00
56992;BME280;42885;49.754;18.636;2023-08-21T01:35:45;98807.48;;;23.14;100.00
56992;BME280;42885;49.754;18.636;2023-08-21T01:38:17;98817.23;;;22.93;100.00
56992;BME280;42885;49.754;18.636;2023-08-21T01:40:49;98809.93;;;22.99;100.00
56992;BME280;42885;49.754;18.636;2023-08-21T01:43:23;98815.16;;;23.09;100.00
56992;BME280;42885;49.754;18.636;2023-08-21T01:45:54;98811.48;;;23.10;100.00
56992;BME280;42885;49.754;18.636;2023-08-21T01:48:27;98808.30;;;23.10;100.00
56992;BME280;42885;49.754;18.636;2023-08-21T01:51:01;98805.89;;;22.91;100.00
56992;BME280;42885;49.754;18.636;2023-08-21T01:53:32;98797.31;;;22.75;100.00
56992;BME280;42885;49.754;18.636;2023-08-21T01:56:04;98805.09;;;22.68;100.00
56992;BME280;42885;49.754;18.636;2023-08-21T01:58:35;98804.48;;;22.78;100.00
56992;BME280;42885;49.754;18.636;2023-08-21T02:01:06;98801.33;;;22.79;100.00
56992;BME280;42885;49.754;18.636;2023-08-21T02:03:37;98806.14;;;22.75;100.00
56992;BME280;42885;49.754;18.636;2023-08-21T02:06:10;98811.47;;;22.71;100.00
56992;BME280;42885;49.754;18.636;2023-08-21T02:08:41;98812.89;;;22.88;100.00
56992;BME280;42885;49.754;18.636;2023-08-21T02:11:13;98808.38;;;22.88;100.00
56992;BME280;42885;49.754;18.636;2023-08-21T02:13:44;98806.70;;;22.57;100.00
56992;BME280;42885;49.754;18.636;2023-08-21T02:16:15;98805.09;;;22.64;100.00
56992;BME280;42885;49.754;18.636;2023-08-21T02:18:46;98809.61;;;22.67;100.00
56992;BME280;42885;49.754;18.636;2023-08-21T02:21:16;98802.81;;;22.77;100.00
56992;BME280;42885;49.754;18.636;2023-08-21T02:23:47;98806.84;;;22.51;100.00
56992;BME280;42885;49.754;18.636;2023-08-21T02:26:21;98795.14;;;22.78;100.00
56992;BME280;42885;49.754;18.636;2023-08-21T02:28:53;98803.05;;;22.62;100.00
56992;BME280;42885;49.754;18.636;2023-08-21T02:31:23;98802.42;;;22.68;100.00
56992;BME280;42885;49.754;18.636;2023-08-21T02:33:54;98798.09;;;22.45;100.00
56992;BME280;42885;49.754;18.636;2023-08-21T02:36:25;98796.95;;;22.47;100.00
56992;BME280;42885;49.754;18.636;2023-08-21T02:38:56;98790.03;;;22.54;100.00
56992;BME280;42885;49.754;18.636;2023-08-21T02:41:27;98793.95;;;22.46;100.00
56992;BME280;42885;49.754;18.636;2023-08-21T02:43:58;98790.52;;;22.32;100.00
56992;BME280;42885;49.754;18.636;2023-08-21T02:46:29;98789.53;;;22.37;100.00
56992;BME280;42885;49.754;18.636;2023-08-21T02:49:01;98794.52;;;22.36;100.00
56992;BME280;42885;49.754;18.636;2023-08-21T02:51:33;98795.57;;;22.65;100.00
56992;BME280;42885;49.754;18.636;2023-08-21T02:54:03;98795.94;;;22.66;100.00
56992;BME280;42885;49.754;18.636;2023-08-21T02:56:35;98793.84;;;22.34;100.00
56992;BME280;42885;49.754;18.636;2023-08-21T02:59:06;98795.63;;;22.47;100.00
56992;BME280;42885;49.754;18.636;2023-08-21T03:01:37;98798.71;;;22.38;100.00
56992;BME280;42885;49.754;18.636;2023-08-21T03:04:08;98794.84;;;22.33;100.00
56992;BME280;42885;49.754;18.636;2023-08-21T03:06:39;98789.19;;;22.36;100.00
56992;BME280;42885;49.754;18.636;2023-08-21T03:09:09;98783.86;;;22.36;100.00
56992;BME280;42885;49.754;18.636;2023-08-21T03:11:40;98783.79;;;22.23;100.00
56992;BME280;42885;49.754;18.636;2023-08-21T03:14:11;98783.73;;;22.15;100.00
56992;BME280;42885;49.754;18.636;2023-08-21T03:16:42;98790.37;;;22.33;100.00
56992;BME280;42885;49.754;18.636;2023-08-21T03:19:13;98786.38;;;22.37;100.00
56992;BME280;42885;49.754;18.636;2023-08-21T03:21:44;98791.28;;;22.46;100.00
56992;BME280;42885;49.754;18.636;2023-08-21T03:24:15;98789.37;;;22.34;100.00
56992;BME280;42885;49.754;18.636;2023-08-21T03:26:46;98788.70;;;22.54;100.00
56992;BME280;42885;49.754;18.636;2023-08-21T03:29:17;98781.66;;;22.31;100.00
56992;BME280;42885;49.754;18.636;2023-08-21T03:31:52;98784.66;;;22.32;100.00
56992;BME280;42885;49.754;18.636;2023-08-21T03:34:25;98786.84;;;22.51;100.00
56992;BME280;42885;49.754;18.636;2023-08-21T03:36:57;98794.23;;;22.65;100.00
56992;BME280;42885;49.754;18.636;2023-08-21T03:39:29;98794.08;;;22.63;100.00
56992;BME280;42885;49.754;18.636;2023-08-21T03:42:00;98794.83;;;23.20;100.00
56992;BME280;42885;49.754;18.636;2023-08-21T03:44:30;98795.43;;;22.45;100.00
56992;BME280;42885;49.754;18.636;2023-08-21T03:47:02;98792.66;;;22.50;100.00
56992;BME280;42885;49.754;18.636;2023-08-21T03:49:35;98799.05;;;22.13;100.00
56992;BME280;42885;49.754;18.636;2023-08-21T03:52:07;98790.52;;;22.09;100.00
56992;BME280;42885;49.754;18.636;2023-08-21T03:54:38;98794.79;;;22.24;100.00
56992;BME280;42885;49.754;18.636;2023-08-21T03:57:09;98792.70;;;22.59;100.00
56992;BME280;42885;49.754;18.636;2023-08-21T03:59:40;98793.70;;;22.58;100.00
56992;BME280;42885;49.754;18.636;2023-08-21T04:02:11;98793.70;;;22.35;100.00
56992;BME280;42885;49.754;18.636;2023-08-21T04:04:41;98787.66;;;22.07;100.00
56992;BME280;42885;49.754;18.636;2023-08-21T04:07:13;98795.80;;;21.87;100.00
56992;BME280;42885;49.754;18.636;2023-08-21T04:09:44;98802.78;;;22.02;100.00
56992;BME280;42885;49.754;18.636;2023-08-21T04:12:15;98790.13;;;22.26;100.00
56992;BME280;42885;49.754;18.636;2023-08-21T04:14:46;98792.23;;;22.41;100.00
56992;BME280;42885;49.754;18.636;2023-08-21T04:17:21;98790.28;;;22.47;100.00
56992;BME280;42885;49.754;18.636;2023-08-21T04:19:52;98791.23;;;22.64;100.00
56992;BME280;42885;49.754;18.636;2023-08-21T04:22:23;98793.61;;;22.72;100.00
56992;BME280;42885;49.754;18.636;2023-08-21T04:24:54;98797.53;;;22.37;100.00
56992;BME280;42885;49.754;18.636;2023-08-21T04:27:25;98794.77;;;22.47;100.00
56992;BME280;42885;49.754;18.636;2023-08-21T04:29:56;98788.44;;;22.48;100.00
56992;BME280;42885;49.754;18.636;2023-08-21T04:32:28;98779.36;;;22.54;100.00
56992;BME280;42885;49.754;18.636;2023-08-21T04:34:59;98782.72;;;22.38;100.00
56992;BME280;42885;49.754;18.636;2023-08-21T04:37:29;98784.99;;;22.51;100.00
56992;BME280;42885;49.754;18.636;2023-08-21T04:40:00;98784.90;;;22.39;100.00
56992;BME280;42885;49.754;18.636;2023-08-21T04:42:31;98780.60;;;22.68;100.00
56992;BME280;42885;49.754;18.636;2023-08-21T04:45:02;98779.52;;;22.53;100.00
56992;BME280;42885;49.754;18.636;2023-08-21T04:47:35;98779.79;;;22.72;100.00
56992;BME280;42885;49.754;18.636;2023-08-21T04:50:06;98784.38;;;22.58;100.00
56992;BME280;42885;49.754;18.636;2023-08-21T04:52:37;98782.17;;;22.83;100.00
56992;BME280;42885;49.754;18.636;2023-08-21T04:55:08;98786.42;;;23.03;100.00
56992;BME280;42885;49.754;18.636;2023-08-21T04:57:40;98785.33;;;22.52;100.00
56992;BME280;42885;49.754;18.636;2023-08-21T05:00:11;98786.27;;;23.04;100.00
56992;BME280;42885;49.754;18.636;2023-08-21T05:02:46;98785.23;;;23.36;100.00
56992;BME280;42885;49.754;18.636;2023-08-21T05:05:16;98790.61;;;23.09;100.00
56992;BME280;42885;49.754;18.636;2023-08-21T05:07:48;98788.06;;;23.30;100.00
56992;BME280;42885;49.754;18.636;2023-08-21T05:10:27;98793.42;;;23.39;100.00
56992;BME280;42885;49.754;18.636;2023-08-21T05:12:58;98791.64;;;23.68;100.00
56992;BME280;42885;49.754;18.636;2023-08-21T05:15:30;98796.52;;;23.98;100.00
56992;BME280;42885;49.754;18.636;2023-08-21T05:18:01;98800.36;;;23.99;100.00
56992;BME280;42885;49.754;18.636;2023-08-21T05:20:34;98796.49;;;23.93;100.00
56992;BME280;42885;49.754;18.636;2023-08-21T05:23:05;98800.17;;;23.84;100.00
56992;BME280;42885;49.754;18.636;2023-08-21T05:25:37;98800.03;;;24.06;100.00
56992;BME280;42885;49.754;18.636;2023-08-21T05:28:08;98798.09;;;24.90;100.00
56992;BME280;42885;49.754;18.636;2023-08-21T05:30:48;98793.12;;;24.70;100.00
56992;BME280;42885;49.754;18.636;2023-08-21T05:33:23;98797.95;;;24.83;100.00
56992;BME280;42885;49.754;18.636;2023-08-21T05:35:56;98797.24;;;24.94;100.00
56992;BME280;42885;49.754;18.636;2023-08-21T05:38:26;98801.69;;;25.14;100.00
56992;BME280;42885;49.754;18.636;2023-08-21T05:40:58;98803.59;;;25.33;100.00
56992;BME280;42885;49.754;18.636;2023-08-21T05:43:31;98806.31;;;25.28;100.00
56992;BME280;42885;49.754;18.636;2023-08-21T05:46:02;98814.26;;;25.45;100.00
56992;BME280;42885;49.754;18.636;2023-08-21T05:48:34;98810.72;;;25.53;100.00
56992;BME280;42885;49.754;18.636;2023-08-21T05:51:04;98816.41;;;25.50;100.00
56992;BME280;42885;49.754;18.636;2023-08-21T05:53:39;98814.56;;;25.54;100.00
56992;BME280;42885;49.754;18.636;2023-08-21T05:56:10;98813.77;;;25.73;100.00
56992;BME280;42885;49.754;18.636;2023-08-21T05:58:43;98810.51;;;26.48;100.00
56992;BME280;42885;49.754;18.636;2023-08-21T06:01:14;98808.73;;;27.04;100.00
56992;BME280;42885;49.754;18.636;2023-08-21T06:03:45;98803.34;;;26.59;100.00
56992;BME280;42885;49.754;18.636;2023-08-21T06:06:23;98803.34;;;26.59;100.00
56992;BME280;42885;49.754;18.636;2023-08-21T06:08:54;98810.25;;;26.73;100.00
56992;BME280;42885;49.754;18.636;2023-08-21T06:11:26;98819.41;;;26.78;100.00
56992;BME280;42885;49.754;18.636;2023-08-21T06:13:57;98804.04;;;26.57;100.00
56992;BME280;42885;49.754;18.636;2023-08-21T06:16:28;98807.97;;;26.80;100.00
56992;BME280;42885;49.754;18.636;2023-08-21T06:18:59;98803.48;;;26.47;100.00
56992;BME280;42885;49.754;18.636;2023-08-21T06:21:30;98813.20;;;26.63;100.00
56992;BME280;42885;49.754;18.636;2023-08-21T06:24:08;98802.93;;;26.66;100.00
56992;BME280;42885;49.754;18.636;2023-08-21T06:26:41;98808.41;;;26.88;100.00
56992;BME280;42885;49.754;18.636;2023-08-21T06:29:16;98808.00;;;27.11;100.00
56992;BME280;42885;49.754;18.636;2023-08-21T06:31:47;98816.20;;;27.13;100.00
56992;BME280;42885;49.754;18.636;2023-08-21T06:34:25;98815.17;;;27.40;100.00
56992;BME280;42885;49.754;18.636;2023-08-21T06:36:56;98812.50;;;27.51;100.00
56992;BME280;42885;49.754;18.636;2023-08-21T06:39:27;98820.73;;;27.75;99.26
56992;BME280;42885;49.754;18.636;2023-08-21T06:42:08;98817.30;;;27.82;100.00
56992;BME280;42885;49.754;18.636;2023-08-21T06:44:41;98820.63;;;27.95;100.00
56992;BME280;42885;49.754;18.636;2023-08-21T06:47:12;98820.63;;;27.95;100.00
56992;BME280;42885;49.754;18.636;2023-08-21T06:49:43;98818.69;;;28.10;100.00
56992;BME280;42885;49.754;18.636;2023-08-21T06:52:14;98826.63;;;28.08;97.18
56992;BME280;42885;49.754;18.636;2023-08-21T06:54:45;98829.14;;;27.98;98.34
56992;BME280;42885;49.754;18.636;2023-08-21T06:57:15;98821.85;;;28.25;96.93
56992;BME280;42885;49.754;18.636;2023-08-21T06:59:46;98819.83;;;28.62;94.62
56992;BME280;42885;49.754;18.636;2023-08-21T07:02:17;98825.59;;;28.70;92.72
56992;BME280;42885;49.754;18.636;2023-08-21T07:04:48;98826.44;;;28.88;91.66
56992;BME280;42885;49.754;18.636;2023-08-21T07:07:19;98836.49;;;28.73;91.11
56992;BME280;42885;49.754;18.636;2023-08-21T07:09:53;98837.93;;;28.86;93.43
56992;BME280;42885;49.754;18.636;2023-08-21T07:12:24;98835.56;;;29.29;89.87
56992;BME280;42885;49.754;18.636;2023-08-21T07:14:54;98849.36;;;29.37;89.27
56992;BME280;42885;49.754;18.636;2023-08-21T07:17:25;98850.19;;;29.13;91.46
56992;BME280;42885;49.754;18.636;2023-08-21T07:19:56;98854.02;;;29.08;92.32
56992;BME280;42885;49.754;18.636;2023-08-21T07:22:27;98849.80;;;29.40;91.58
56992;BME280;42885;49.754;18.636;2023-08-21T07:24:58;98854.15;;;29.42;91.34
56992;BME280;42885;49.754;18.636;2023-08-21T07:27:31;98853.81;;;29.51;91.45
56992;BME280;42885;49.754;18.636;2023-08-21T07:30:02;98861.86;;;29.45;91.34
56992;BME280;42885;49.754;18.636;2023-08-21T07:32:33;98866.81;;;29.41;91.93
56992;BME280;42885;49.754;18.636;2023-08-21T07:35:10;98865.76;;;29.18;95.05
56992;BME280;42885;49.754;18.636;2023-08-21T07:37:47;98868.36;;;29.15;97.21
56992;BME280;42885;49.754;18.636;2023-08-21T07:40:32;98873.58;;;29.23;97.84
56992;BME280;42885;49.754;18.636;2023-08-21T07:43:03;98872.98;;;29.28;98.18
56992;BME280;42885;49.754;18.636;2023-08-21T07:45:36;98868.03;;;29.56;94.52
56992;BME280;42885;49.754;18.636;2023-08-21T07:48:09;98870.97;;;29.61;92.70
56992;BME280;42885;49.754;18.636;2023-08-21T07:50:52;98872.81;;;29.61;90.64
56992;BME280;42885;49.754;18.636;2023-08-21T07:53:24;98874.95;;;29.79;90.55
56992;BME280;42885;49.754;18.636;2023-08-21T07:55:55;98873.19;;;29.82;91.42
56992;BME280;42885;49.754;18.636;2023-08-21T07:58:35;98870.48;;;30.06;92.88
56992;BME280;42885;49.754;18.636;2023-08-21T08:01:06;98877.04;;;29.84;88.09
56992;BME280;42885;49.754;18.636;2023-08-21T08:03:37;98871.22;;;29.87;90.25
56992;BME280;42885;49.754;18.636;2023-08-21T08:06:08;98875.99;;;29.78;91.93
56992;BME280;42885;49.754;18.636;2023-08-21T08:08:48;98870.36;;;30.11;85.91
56992;BME280;42885;49.754;18.636;2023-08-21T08:11:19;98858.81;;;29.99;84.76
56992;BME280;42885;49.754;18.636;2023-08-21T08:13:50;98875.77;;;30.38;85.24
56992;BME280;42885;49.754;18.636;2023-08-21T08:16:21;98878.91;;;30.28;84.34
56992;BME280;42885;49.754;18.636;2023-08-21T08:18:52;98866.13;;;30.53;82.69
56992;BME280;42885;49.754;18.636;2023-08-21T08:21:23;98874.32;;;30.75;82.91
56992;BME280;42885;49.754;18.636;2023-08-21T08:23:54;98873.48;;;30.82;82.87
56992;BME280;42885;49.754;18.636;2023-08-21T08:26:25;98877.40;;;31.06;82.48
56992;BME280;42885;49.754;18.636;2023-08-21T08:28:58;98874.51;;;30.87;81.21
56992;BME280;42885;49.754;18.636;2023-08-21T08:31:29;98872.67;;;31.17;76.95
56992;BME280;42885;49.754;18.636;2023-08-21T08:34:02;98869.53;;;31.21;76.88
56992;BME280;42885;49.754;18.636;2023-08-21T08:36:39;98870.28;;;31.18;78.25
56992;BME280;42885;49.754;18.636;2023-08-21T08:39:11;98867.67;;;31.35;73.67
56992;BME280;42885;49.754;18.636;2023-08-21T08:42:02;98869.94;;;31.61;76.79
56992;BME280;42885;49.754;18.636;2023-08-21T08:44:35;98873.78;;;31.85;72.76
56992;BME280;42885;49.754;18.636;2023-08-21T08:47:12;98864.93;;;31.64;72.81
56992;BME280;42885;49.754;18.636;2023-08-21T08:49:50;98864.93;;;31.64;72.81
56992;BME280;42885;49.754;18.636;2023-08-21T08:52:38;98868.09;;;31.70;72.52
56992;BME280;42885;49.754;18.636;2023-08-21T08:55:15;98869.55;;;31.73;70.17
56992;BME280;42885;49.754;18.636;2023-08-21T08:57:46;98871.09;;;31.78;72.16
56992;BME280;42885;49.754;18.636;2023-08-21T09:00:16;98865.31;;;32.07;71.04
56992;BME280;42885;49.754;18.636;2023-08-21T09:02:48;98869.27;;;32.20;68.65
56992;BME280;42885;49.754;18.636;2023-08-21T09:05:22;98871.94;;;32.11;67.37
56992;BME280;42885;49.754;18.636;2023-08-21T09:08:03;98869.77;;;32.10;68.32
56992;BME280;42885;49.754;18.636;2023-08-21T09:10:40;98872.62;;;32.48;66.69
56992;BME280;42885;49.754;18.636;2023-08-21T09:13:16;98866.62;;;32.13;66.36
56992;BME280;42885;49.754;18.636;2023-08-21T09:15:48;98872.81;;;32.21;64.54
56992;BME280;42885;49.754;18.636;2023-08-21T09:18:38;98864.11;;;32.44;63.67
56992;BME280;42885;49.754;18.636;2023-08-21T09:21:28;98854.94;;;32.29;64.24
56992;BME280;42885;49.754;18.636;2023-08-21T09:24:01;98857.87;;;32.44;63.40
56992;BME280;42885;49.754;18.636;2023-08-21T09:26:51;98845.27;;;32.75;64.00
56992;BME280;42885;49.754;18.636;2023-08-21T09:29:22;98844.88;;;32.97;62.49
56992;BME280;42885;49.754;18.636;2023-08-21T09:32:00;98844.16;;;32.82;61.61
56992;BME280;42885;49.754;18.636;2023-08-21T09:34:38;98837.95;;;32.47;64.07
56992;BME280;42885;49.754;18.636;2023-08-21T09:37:18;98845.94;;;32.35;64.09
56992;BME280;42885;49.754;18.636;2023-08-21T09:40:02;98841.28;;;32.87;60.66
56992;BME280;42885;49.754;18.636;2023-08-21T09:42:34;98838.64;;;32.61;62.96
56992;BME280;42885;49.754;18.636;2023-08-21T09:45:11;98835.84;;;33.03;59.67
56992;BME280;42885;49.754;18.636;2023-08-21T09:47:43;98831.53;;;32.95;59.60
56992;BME280;42885;49.754;18.636;2023-08-21T09:50:14;98828.73;;;32.92;60.72
56992;BME280;42885;49.754;18.636;2023-08-21T09:52:45;98828.59;;;33.15;60.06
56992;BME280;42885;49.754;18.636;2023-08-21T09:55:16;98830.14;;;33.42;58.74
56992;BME280;42885;49.754;18.636;2023-08-21T09:57:48;98832.77;;;33.39;57.34
56992;BME280;42885;49.754;18.636;2023-08-21T10:00:21;98832.19;;;32.90;58.83
56992;BME280;42885;49.754;18.636;2023-08-21T10:02:58;98827.63;;;33.68;58.70
56992;BME280;42885;49.754;18.636;2023-08-21T10:05:32;98832.33;;;33.82;55.68
56992;BME280;42885;49.754;18.636;2023-08-21T10:08:04;98833.41;;;33.93;54.44
56992;BME280;42885;49.754;18.636;2023-08-21T10:10:37;98830.24;;;34.29;54.86
56992;BME280;42885;49.754;18.636;2023-08-21T10:13:08;98824.40;;;34.47;52.87
56992;BME280;42885;49.754;18.636;2023-08-21T10:15:46;98828.49;;;34.71;53.11
56992;BME280;42885;49.754;18.636;2023-08-21T10:18:22;98824.16;;;34.25;51.49
56992;BME280;42885;49.754;18.636;2023-08-21T10:20:53;98825.23;;;34.36;54.14
56992;BME280;42885;49.754;18.636;2023-08-21T10:23:26;98825.53;;;34.37;54.55
56992;BME280;42885;49.754;18.636;2023-08-21T10:26:06;98827.50;;;34.63;53.99
56992;BME280;42885;49.754;18.636;2023-08-21T10:29:00;98829.77;;;34.44;54.01
56992;BME280;42885;49.754;18.636;2023-08-21T10:31:40;98820.52;;;34.43;54.26
56992;BME280;42885;49.754;18.636;2023-08-21T10:34:13;98821.58;;;34.30;55.66
56992;BME280;42885;49.754;18.636;2023-08-21T10:37:12;98822.58;;;34.50;53.96
56992;BME280;42885;49.754;18.636;2023-08-21T10:39:30;98820.58;;;34.45;54.18
56992;BME280;42885;49.754;18.636;2023-08-21T10:42:07;98813.19;;;34.67;54.44
56992;BME280;42885;49.754;18.636;2023-08-21T10:50:07;98807.58;;;35.10;52.99
56992;BME280;42885;49.754;18.636;2023-08-21T10:52:41;98808.32;;;35.78;49.74
56992;BME280;42885;49.754;18.636;2023-08-21T10:55:20;98810.91;;;36.19;46.84
56992;BME280;42885;49.754;18.636;2023-08-21T10:57:51;98806.06;;;36.21;45.73
56992;BME280;42885;49.754;18.636;2023-08-21T11:00:24;98806.09;;;35.17;47.65
56992;BME280;42885;49.754;18.636;2023-08-21T11:02:55;98809.39;;;34.80;48.58
56992;BME280;42885;49.754;18.636;2023-08-21T11:05:28;98805.12;;;35.08;49.46
56992;BME280;42885;49.754;18.636;2023-08-21T11:07:58;98806.09;;;35.17;48.80
56992;BME280;42885;49.754;18.636;2023-08-21T11:10:31;98804.94;;;35.41;50.40
56992;BME280;42885;49.754;18.636;2023-08-21T11:13:06;98801.97;;;35.72;47.04
56992;BME280;42885;49.754;18.636;2023-08-21T11:15:36;98799.06;;;36.10;47.44
56992;BME280;42885;49.754;18.636;2023-08-21T11:18:07;98802.52;;;35.89;48.07
56992;BME280;42885;49.754;18.636;2023-08-21T11:20:38;98803.28;;;35.26;48.29
56992;BME280;42885;49.754;18.636;2023-08-21T11:23:09;98806.67;;;34.80;50.75
56992;BME280;42885;49.754;18.636;2023-08-21T11:25:40;98807.34;;;34.99;49.57
56992;BME280;42885;49.754;18.636;2023-08-21T11:28:11;98810.23;;;34.81;49.32
56992;BME280;42885;49.754;18.636;2023-08-21T11:30:49;98806.13;;;34.93;49.58
56992;BME280;42885;49.754;18.636;2023-08-21T11:33:20;98801.81;;;34.82;49.15
56992;BME280;42885;49.754;18.636;2023-08-21T11:35:51;98799.25;;;34.64;49.55
56992;BME280;42885;49.754;18.636;2023-08-21T11:38:24;98798.24;;;34.67;52.14
56992;BME280;42885;49.754;18.636;2023-08-21T11:40:57;98792.67;;;35.00;49.66
56992;BME280;42885;49.754;18.636;2023-08-21T11:43:41;98797.64;;;34.53;50.28
56992;BME280;42885;49.754;18.636;2023-08-21T11:46:13;98802.08;;;34.33;51.37
56992;BME280;42885;49.754;18.636;2023-08-21T11:48:44;98802.11;;;34.57;50.88
56992;BME280;42885;49.754;18.636;2023-08-21T11:51:18;98799.52;;;34.53;50.13
56992;BME280;42885;49.754;18.636;2023-08-21T11:53:49;98804.44;;;34.53;52.34
56992;BME280;42885;49.754;18.636;2023-08-21T11:56:28;98799.89;;;34.68;52.19
56992;BME280;42885;49.754;18.636;2023-08-21T11:58:59;98800.81;;;34.59;53.08
56992;BME280;42885;49.754;18.636;2023-08-21T12:01:35;98798.06;;;34.48;53.01
56992;BME280;42885;49.754;18.636;2023-08-21T12:04:16;98799.94;;;34.23;54.50
56992;BME280;42885;49.754;18.636;2023-08-21T12:06:47;98799.58;;;34.19;54.91
56992;BME280;42885;49.754;18.636;2023-08-21T12:09:19;98790.28;;;34.39;53.84
56992;BME280;42885;49.754;18.636;2023-08-21T12:11:53;98795.20;;;34.07;56.06
56992;BME280;42885;49.754;18.636;2023-08-21T12:14:24;98796.87;;;34.31;55.78
56992;BME280;42885;49.754;18.636;2023-08-21T12:16:55;98797.42;;;34.43;57.68
56992;BME280;42885;49.754;18.636;2023-08-21T12:19:26;98791.75;;;34.95;54.74
56992;BME280;42885;49.754;18.636;2023-08-21T12:21:57;98788.03;;;34.60;55.22
56992;BME280;42885;49.754;18.636;2023-08-21T12:24:28;98779.92;;;35.13;53.05
56992;BME280;42885;49.754;18.636;2023-08-21T12:27:06;98785.08;;;35.00;54.11
56992;BME280;42885;49.754;18.636;2023-08-21T12:29:39;98793.22;;;34.73;55.11
56992;BME280;42885;49.754;18.636;2023-08-21T12:32:18;98779.98;;;34.53;53.92
56992;BME280;42885;49.754;18.636;2023-08-21T12:34:49;98778.70;;;34.32;60.57
56992;BME280;42885;49.754;18.636;2023-08-21T12:37:19;98780.45;;;35.41;56.80
56992;BME280;42885;49.754;18.636;2023-08-21T12:39:54;98770.92;;;35.88;50.25
56992;BME280;42885;49.754;18.636;2023-08-21T12:42:24;98771.69;;;36.76;47.89
56992;BME280;42885;49.754;18.636;2023-08-21T12:44:55;98767.34;;;37.78;44.33
56992;BME280;42885;49.754;18.636;2023-08-21T12:47:26;98768.15;;;37.01;44.85
56992;BME280;42885;49.754;18.636;2023-08-21T12:49:57;98765.63;;;37.44;43.07
56992;BME280;42885;49.754;18.636;2023-08-21T12:52:28;98764.80;;;37.43;43.66
56992;BME280;42885;49.754;18.636;2023-08-21T12:54:59;98759.03;;;38.00;42.24
56992;BME280;42885;49.754;18.636;2023-08-21T12:57:33;98759.20;;;38.72;41.85
56992;BME280;42885;49.754;18.636;2023-08-21T13:00:07;98757.86;;;38.77;41.10
56992;BME280;42885;49.754;18.636;2023-08-21T13:02:39;98752.63;;;38.73;40.23
56992;BME280;42885;49.754;18.636;2023-08-21T13:05:14;98743.00;;;39.36;38.77
56992;BME280;42885;49.754;18.636;2023-08-21T13:07:45;98741.66;;;39.47;39.39
56992;BME280;42885;49.754;18.636;2023-08-21T13:10:16;98736.42;;;39.35;40.24
56992;BME280;42885;49.754;18.636;2023-08-21T13:12:50;98734.28;;;39.58;38.86
56992;BME280;42885;49.754;18.636;2023-08-21T13:15:21;98733.17;;;39.72;37.75
56992;BME280;42885;49.754;18.636;2023-08-21T13:17:52;98731.78;;;40.16;35.88
56992;BME280;42885;49.754;18.636;2023-08-21T13:20:23;98734.16;;;40.46;35.45